»·PEaware :: AMX668 MMMX-KSFO

AMX668 :: MMMX-KSFO

FLIGHT INFORMATION

Flight Status: Arrived
Operator:
Aeromexico
More flights by this operator :: More flights under this callsign
Pilot: Isaac R. (8401)
Aircraft: BOEING 737-800
(B738)
More flights by this aircraft type
Origin: MMMX Lic Benito Juarez Intl
Mexico
Destination: KSFO San Francisco Intl
United States
More flights between these airports :: More routes between these airports
Route: PTJ5A PTJ J13 AGU UJ63 DGO UJ5 HMO UJ3 PPE UJ7 MXL DCT CZQ MOD8
File this flight plan on PilotEdge
Remarks:
Altitude:
(Current/Filed)
36,000ft
Speed:
(Current/Filed)
200kts
Departed: 13-Jan-19 11:14 AM
Arrived: 13-Jan-19 12:38 PM
Distance/Time
Traveled:
1634nm/1:24
Distance/Time
To Go:
Arrived

Flight Plot

Page will automatically refresh every two minutes.

Flight plan parsing failed; only flown route is shown


Map Options




Map Legend


Flown Route
Filed Route
Departure Airport
Arrival Airport
Navaid (VOR, NDB)
Fix

Horizontal Profiles

Position Reports

Time Latitude Longitude Heading Altitude Ground
Speed
13-Jan-19 11:13 31.952891 -113.936644 309 36203ft 430kts
13-Jan-19 11:14 32.040372 -114.032538 309 36201ft 430kts
13-Jan-19 11:15 32.128077 -114.128946 309 36201ft 430kts
13-Jan-19 11:16 32.215406 -114.225210 309 36200ft 430kts
13-Jan-19 11:17 32.302786 -114.321799 309 36200ft 429kts
13-Jan-19 11:18 32.389818 -114.418263 309 36199ft 429kts
13-Jan-19 11:19 32.476753 -114.514891 309 36199ft 428kts
13-Jan-19 11:20 32.563722 -114.611828 309 36200ft 429kts
13-Jan-19 11:21 32.650313 -114.708611 309 36200ft 427kts
13-Jan-19 11:22 32.736766 -114.805508 309 36194ft 428kts
13-Jan-19 11:23 32.823476 -114.902969 309 36199ft 428kts
13-Jan-19 11:24 32.909842 -115.000319 309 36206ft 428kts
13-Jan-19 11:25 32.996460 -115.098227 309 36208ft 428kts
13-Jan-19 11:26 33.082564 -115.195833 309 36206ft 428kts
13-Jan-19 11:27 33.168615 -115.293656 309 36206ft 428kts
13-Jan-19 11:28 33.254823 -115.391938 309 36204ft 427kts
13-Jan-19 11:28 33.326355 -115.473703 309 36203ft 428kts
13-Jan-19 11:30 33.426414 -115.588405 309 36201ft 427kts
13-Jan-19 11:30 33.498087 -115.670803 310 36201ft 427kts
13-Jan-19 11:32 33.597747 -115.785710 310 36191ft 427kts
13-Jan-19 11:33 33.683298 -115.884656 310 36195ft 426kts
13-Jan-19 11:33 33.754303 -115.967002 310 36194ft 426kts
13-Jan-19 11:34 33.839351 -116.065892 310 36199ft 425kts
13-Jan-19 11:35 33.924571 -116.165277 310 36218ft 425kts
13-Jan-19 11:36 34.009475 -116.264582 310 36223ft 426kts
13-Jan-19 11:37 34.094217 -116.363993 310 36229ft 426kts
13-Jan-19 11:38 34.179316 -116.464112 310 36224ft 426kts
13-Jan-19 11:39 34.264007 -116.564055 310 36204ft 426kts
13-Jan-19 11:40 34.348570 -116.664141 310 36182ft 426kts
13-Jan-19 11:41 34.433410 -116.764855 310 36174ft 426kts
13-Jan-19 11:42 34.518009 -116.865581 310 36183ft 427kts
13-Jan-19 11:43 34.602889 -116.966951 310 36196ft 427kts
13-Jan-19 11:44 34.687307 -117.068073 310 36208ft 427kts
13-Jan-19 11:45 34.771773 -117.169558 310 36209ft 427kts
13-Jan-19 11:46 34.856484 -117.271655 310 36209ft 427kts
13-Jan-19 11:47 34.940747 -117.373518 310 36217ft 427kts
13-Jan-19 11:48 35.025116 -117.475826 310 36215ft 427kts
13-Jan-19 11:49 35.109196 -117.578096 310 36215ft 427kts
13-Jan-19 11:50 35.193324 -117.680744 310 36213ft 426kts
13-Jan-19 11:51 35.276963 -117.783105 310 36212ft 425kts
13-Jan-19 11:52 35.360439 -117.885589 310 36210ft 425kts
13-Jan-19 11:53 35.444018 -117.988516 310 36206ft 425kts
13-Jan-19 11:54 35.527539 -118.091695 310 36208ft 427kts
13-Jan-19 11:55 35.611225 -118.195403 310 36198ft 426kts
13-Jan-19 11:56 35.694515 -118.298944 310 36189ft 426kts
13-Jan-19 11:57 35.777955 -118.403002 310 36182ft 426kts
13-Jan-19 11:58 35.861128 -118.507060 310 36154ft 427kts
13-Jan-19 11:59 35.944426 -118.611600 310 36145ft 428kts
13-Jan-19 12:00 36.028068 -118.716939 310 36147ft 428kts
13-Jan-19 12:01 36.111301 -118.822062 310 36151ft 429kts
13-Jan-19 12:02 36.194736 -118.927786 310 36151ft 430kts
13-Jan-19 12:03 36.278612 -119.034421 310 36151ft 431kts
13-Jan-19 12:04 36.362348 -119.141231 310 36151ft 433kts
13-Jan-19 12:05 36.446209 -119.248553 310 36150ft 434kts
13-Jan-19 12:06 36.530360 -119.356608 310 36125ft 434kts
13-Jan-19 12:07 36.614300 -119.464753 310 36121ft 435kts
13-Jan-19 12:08 36.698625 -119.573461 310 36120ft 435kts
13-Jan-19 12:09 36.782421 -119.682209 310 36118ft 435kts
13-Jan-19 12:10 36.866009 -119.791192 310 36118ft 435kts
13-Jan-19 12:11 36.956886 -119.892041 317 36062ft 437kts
13-Jan-19 12:12 37.048892 -119.987444 317 34298ft 422kts
13-Jan-19 12:13 37.137571 -120.080397 317 32609ft 408kts
13-Jan-19 12:14 37.223400 -120.170342 317 31026ft 397kts
13-Jan-19 12:15 37.306890 -120.258046 317 29517ft 386kts
13-Jan-19 12:16 37.389144 -120.345138 318 28020ft 398kts
13-Jan-19 12:17 37.470620 -120.437045 306 26457ft 390kts
13-Jan-19 12:18 37.514691 -120.559660 290 24895ft 383kts
13-Jan-19 12:19 37.551187 -120.686301 290 23361ft 395kts
13-Jan-19 12:20 37.587558 -120.815902 289 21783ft 389kts
13-Jan-19 12:21 37.621653 -120.944254 279 20273ft 381kts
13-Jan-19 12:22 37.614299 -121.076104 258 18516ft 380kts
13-Jan-19 12:23 37.599087 -121.208577 258 16627ft 379kts
13-Jan-19 12:24 37.584533 -121.336611 258 14897ft 364kts
13-Jan-19 12:25 37.569942 -121.462108 257 13196ft 355kts
13-Jan-19 12:26 37.556107 -121.580045 256 11591ft 326kts
13-Jan-19 12:27 37.537066 -121.686460 247 10060ft 301kts
13-Jan-19 12:28 37.513672 -121.780751 247 9283ft 264kts
13-Jan-19 12:29 37.493567 -121.864030 248 8302ft 232kts
13-Jan-19 12:30 37.494449 -121.943325 270 7188ft 222kts
13-Jan-19 12:31 37.499207 -122.020996 268 6091ft 222kts
13-Jan-19 12:32 37.504696 -122.097411 282 4926ft 221kts
13-Jan-19 12:33 37.534451 -122.169156 298 3278ft 215kts
13-Jan-19 12:34 37.560014 -122.229743 298 2239ft 182kts
13-Jan-19 12:35 37.582774 -122.284256 299 1416ft 165kts
13-Jan-19 12:36 37.604154 -122.334242 299 497ft 156kts
13-Jan-19 12:37 37.621200 -122.375370 297 21ft 37kts
13-Jan-19 12:38 37.621584 -122.382993 212 21ft 22kts
13-Jan-19 12:39 37.618721 -122.380090 138 21ft 12kts
13-Jan-19 12:40 37.614937 -122.380757 207 21ft 17kts
13-Jan-19 12:41 37.610631 -122.383837 245 21ft 16kts
13-Jan-19 12:42 37.610576 -122.388836 207 21ft 14kts
13-Jan-19 12:43 37.612307 -122.391622 26 21ft 12kts
13-Jan-19 12:44 37.612715 -122.390274 118 21ft 1kts
13-Jan-19 12:45 37.612710 -122.390264 118 21ft 0kts
13-Jan-19 12:46 37.612710 -122.390264 118 21ft 0kts

Navigation Log

Ident Type
Flight plan parsing failed, navigation log unavailable